createdAt,value
2019-02-12T00:02:12.030Z,97.60
2019-02-12T00:04:41.795Z,97.90
2019-02-12T00:07:11.563Z,98.30
2019-02-12T00:09:41.423Z,98.60
2019-02-12T00:12:11.131Z,98.80
2019-02-12T00:14:40.792Z,98.90
2019-02-12T00:17:10.446Z,98.90
2019-02-12T00:19:40.383Z,98.80
2019-02-12T00:22:10.221Z,98.80
2019-02-12T00:24:40.419Z,98.90
2019-02-12T00:27:10.187Z,99.00
2019-02-12T00:29:40.408Z,99.10
2019-02-12T00:32:10.424Z,98.60
2019-02-12T00:34:40.279Z,98.60
2019-02-12T00:37:10.194Z,98.90
2019-02-12T00:39:40.641Z,99.00
2019-02-12T00:42:15.518Z,99.00
2019-02-12T00:44:46.285Z,98.90
2019-02-12T00:47:16.154Z,98.90
2019-02-12T00:49:46.385Z,98.90
2019-02-12T00:52:16.367Z,98.90
2019-02-12T00:54:46.201Z,98.50
2019-02-12T00:57:15.909Z,98.10
2019-02-12T00:59:45.827Z,98.20
2019-02-12T01:02:16.112Z,98.30
2019-02-12T01:04:45.897Z,98.40
2019-02-12T01:07:15.629Z,98.20
2019-02-12T01:09:45.578Z,97.90
2019-02-12T01:12:15.768Z,97.50
2019-02-12T01:14:45.613Z,97.50
2019-02-12T01:17:15.255Z,97.30
2019-02-12T01:19:44.928Z,97.50
2019-02-12T01:22:15.297Z,97.70
2019-02-12T01:24:44.907Z,98.00
2019-02-12T01:27:14.606Z,98.20
2019-02-12T01:29:44.392Z,98.00
2019-02-12T01:35:00.954Z,98.20
2019-02-12T01:37:30.964Z,97.90
2019-02-12T01:40:00.627Z,97.90
2019-02-12T01:42:30.386Z,97.80
2019-02-12T01:45:00.033Z,97.90
2019-02-12T01:47:29.706Z,98.00
2019-02-12T01:50:00.304Z,97.80
2019-02-12T01:52:30.080Z,98.20
2019-02-12T01:54:59.985Z,98.30
2019-02-12T01:57:30.582Z,98.60
2019-02-12T02:00:00.474Z,98.70
2019-02-12T02:02:30.121Z,98.50
2019-02-12T02:04:59.833Z,98.70
2019-02-12T02:07:29.566Z,98.70
2019-02-12T02:09:59.680Z,98.80
2019-02-12T02:12:29.710Z,98.80
2019-02-12T02:14:59.574Z,98.60
2019-02-12T02:17:29.997Z,98.30
2019-02-12T02:19:59.916Z,98.10
2019-02-12T02:22:29.656Z,98.10
2019-02-12T02:24:59.367Z,98.30
2019-02-12T02:27:29.482Z,98.40
2019-02-12T02:30:00.320Z,98.50
2019-02-12T02:32:30.188Z,98.40
2019-02-12T02:35:00.471Z,98.50
2019-02-12T02:37:32.735Z,98.40
2019-02-12T02:40:02.432Z,98.80
2019-02-12T02:42:32.241Z,98.50
2019-02-12T02:45:02.394Z,98.60
2019-02-12T02:47:32.173Z,98.70
2019-02-12T02:50:03.430Z,98.90
2019-02-12T02:52:33.306Z,99.00
2019-02-12T02:55:10.104Z,99.10
2019-02-12T02:57:39.825Z,99.30
2019-02-12T03:00:11.430Z,99.70
2019-02-12T03:02:41.191Z,99.90
2019-02-12T03:05:11.883Z,99.90
2019-02-12T03:07:41.556Z,99.90
2019-02-12T03:10:12.774Z,99.80
2019-02-12T03:12:42.421Z,99.90
2019-02-12T03:15:12.572Z,99.90
2019-02-12T03:17:42.132Z,99.90
2019-02-12T03:20:12.351Z,99.90
2019-02-12T03:22:41.941Z,99.90
2019-02-12T03:25:11.706Z,99.90
2019-02-12T03:27:41.576Z,99.90
2019-02-12T03:30:12.698Z,99.90
2019-02-12T03:32:42.781Z,99.90
2019-02-12T03:35:12.538Z,99.90
2019-02-12T03:37:42.550Z,99.90
2019-02-12T03:40:12.847Z,99.90
2019-02-12T03:42:42.366Z,99.90
2019-02-12T03:45:13.747Z,99.90
2019-02-12T03:47:43.776Z,99.90
2019-02-12T03:50:16.400Z,99.90
2019-02-12T03:52:48.541Z,99.80
2019-02-12T03:55:18.247Z,99.70
2019-02-12T03:57:48.347Z,99.50
2019-02-12T04:00:17.963Z,99.60
2019-02-12T04:03:02.068Z,99.40
2019-02-12T04:05:32.679Z,99.30
2019-02-12T04:08:02.723Z,99.40
2019-02-12T04:10:32.310Z,99.20
2019-02-12T04:13:01.936Z,99.20
2019-02-12T04:15:31.815Z,99.20
2019-02-12T04:18:01.890Z,99.20
2019-02-12T04:20:31.579Z,99.30
2019-02-12T04:23:01.119Z,99.40
2019-02-12T04:25:50.796Z,99.80
2019-02-12T04:28:22.659Z,99.90
2019-02-12T04:30:52.184Z,99.90
2019-02-12T04:33:21.963Z,99.90
2019-02-12T04:35:51.490Z,99.90
2019-02-12T04:38:21.090Z,99.90
2019-02-12T04:40:50.972Z,99.90
2019-02-12T04:43:20.947Z,99.80
2019-02-12T04:45:50.707Z,99.50
2019-02-12T04:48:20.264Z,99.50
2019-02-12T04:50:50.751Z,99.40
2019-02-12T04:53:20.970Z,99.70
2019-02-12T04:55:51.111Z,99.60
2019-02-12T04:58:22.063Z,99.70
2019-02-12T05:00:51.737Z,99.60
2019-02-12T05:03:21.290Z,99.30
2019-02-12T05:05:50.883Z,99.30
2019-02-12T05:08:20.551Z,99.30
2019-02-12T05:10:53.183Z,99.30
2019-02-12T05:13:23.139Z,99.20
2019-02-12T05:15:52.674Z,99.30
2019-02-12T05:18:22.232Z,99.20
2019-02-12T05:20:51.854Z,99.10
2019-02-12T05:23:21.427Z,99.10
2019-02-12T05:25:51.062Z,99.30
2019-02-12T05:28:20.666Z,99.30
2019-02-12T05:30:50.255Z,99.60
2019-02-12T05:33:19.877Z,99.70
2019-02-12T05:35:49.397Z,99.60
2019-02-12T05:38:18.986Z,99.80
2019-02-12T05:40:48.539Z,99.80
2019-02-12T05:43:18.067Z,99.90
2019-02-12T05:45:47.686Z,99.90
2019-02-12T05:48:18.228Z,99.90
2019-02-12T05:50:47.751Z,99.90
2019-02-12T05:53:17.955Z,99.90
2019-02-12T05:55:47.515Z,99.90
2019-02-12T05:58:17.061Z,99.90
2019-02-12T06:00:46.737Z,99.90
2019-02-12T06:03:16.775Z,99.90
2019-02-12T06:05:46.472Z,99.90
2019-02-12T06:08:16.011Z,99.60
2019-02-12T06:10:45.623Z,99.30
2019-02-12T06:13:15.145Z,99.20
2019-02-12T06:15:44.681Z,99.00
2019-02-12T06:18:14.725Z,98.80
2019-02-12T06:20:44.714Z,98.90
2019-02-12T06:23:14.622Z,99.00
2019-02-12T06:25:44.794Z,98.80
2019-02-12T06:28:14.579Z,98.70
2019-02-12T06:30:44.344Z,98.50
2019-02-12T06:33:14.524Z,98.80
2019-02-12T06:35:44.422Z,98.50
2019-02-12T06:38:14.315Z,98.40
2019-02-12T06:40:44.343Z,98.40
2019-02-12T06:43:14.339Z,98.40
2019-02-12T06:45:44.187Z,98.20
2019-02-12T06:48:14.110Z,98.20
2019-02-12T06:50:44.323Z,98.10
2019-02-12T06:53:13.947Z,98.10
2019-02-12T06:55:44.004Z,98.10
2019-02-12T06:58:14.139Z,98.10
2019-02-12T07:00:43.816Z,98.10
2019-02-12T07:03:18.210Z,98.00
2019-02-12T07:06:12.102Z,98.00
2019-02-12T07:08:47.627Z,98.10
2019-02-12T07:11:37.634Z,98.00
2019-02-12T07:14:13.060Z,98.10
2019-02-12T07:17:07.996Z,98.20
2019-02-12T07:19:49.235Z,98.20
2019-02-12T07:22:38.795Z,98.30
2019-02-12T07:25:34.138Z,98.40
2019-02-12T07:28:25.026Z,98.40
2019-02-12T07:31:34.545Z,98.60
2019-02-12T07:34:18.539Z,98.80
2019-02-12T07:37:11.667Z,98.80
2019-02-12T07:42:37.273Z,98.70
2019-02-12T07:45:27.871Z,98.50
2019-02-12T07:48:07.094Z,98.30
2019-02-12T07:50:45.674Z,98.30
2019-02-12T07:53:30.647Z,98.40
2019-02-12T07:56:07.679Z,98.30
2019-02-12T07:58:55.386Z,98.20
2019-02-12T08:01:37.111Z,98.00
2019-02-12T08:04:18.442Z,97.80
2019-02-12T08:07:07.555Z,97.90
2019-02-12T08:09:46.196Z,98.10
2019-02-12T08:12:30.855Z,98.40
2019-02-12T08:15:06.419Z,98.50
2019-02-12T08:17:44.886Z,98.60
2019-02-12T08:20:37.133Z,98.30
2019-02-12T08:23:41.058Z,98.10
2019-02-12T08:26:13.693Z,97.90
2019-02-12T08:28:52.578Z,97.60
2019-02-12T08:31:37.769Z,97.70
2019-02-12T08:34:13.306Z,97.50
2019-02-12T08:36:54.167Z,97.40
2019-02-12T08:39:41.974Z,97.40
2019-02-12T08:42:14.759Z,97.30
2019-02-12T08:45:14.943Z,97.20
2019-02-12T08:48:08.543Z,97.20
2019-02-12T08:50:43.767Z,97.10
2019-02-12T08:53:19.202Z,97.20
2019-02-12T08:56:00.665Z,97.20
2019-02-12T08:58:42.810Z,97.10
2019-02-12T09:01:39.254Z,97.00
2019-02-12T09:04:11.956Z,96.90
2019-02-12T09:07:15.880Z,96.80
2019-02-12T09:10:10.893Z,97.00
2019-02-12T09:13:13.250Z,96.80
2019-02-12T09:15:48.532Z,96.70
2019-02-12T09:18:29.867Z,96.50
2019-02-12T09:21:22.404Z,96.60
2019-02-12T09:24:12.729Z,96.60
2019-02-12T09:26:57.349Z,96.60
2019-02-12T09:29:29.954Z,96.60
2019-02-12T09:32:22.731Z,96.70
2019-02-12T09:34:55.329Z,96.80
2019-02-12T09:37:49.543Z,96.60
2019-02-12T09:40:37.096Z,96.50
2019-02-12T09:43:35.276Z,96.50
2019-02-12T09:46:13.855Z,95.70
2019-02-12T09:48:49.685Z,95.70
2019-02-12T09:51:25.242Z,95.50
2019-02-12T09:53:58.278Z,95.50
2019-02-12T09:56:52.012Z,95.40
2019-02-12T09:59:27.328Z,95.30
2019-02-12T10:02:20.947Z,95.30
2019-02-12T10:04:59.278Z,94.70
2019-02-12T10:07:37.724Z,94.30
2019-02-12T10:10:16.476Z,93.40
2019-02-12T10:13:10.387Z,93.40
2019-02-12T10:15:55.082Z,93.20
2019-02-12T10:18:45.699Z,93.10
2019-02-12T10:21:33.870Z,92.50
2019-02-12T10:24:18.948Z,92.00
2019-02-12T10:27:00.147Z,91.40
2019-02-12T10:29:35.919Z,90.90
2019-02-12T10:32:08.667Z,90.80
2019-02-12T10:34:36.002Z,90.90
2019-02-12T10:37:05.984Z,90.90
2019-02-12T10:39:35.997Z,91.00
2019-02-12T10:42:06.042Z,90.80
2019-02-12T10:44:35.892Z,90.80
2019-02-12T10:47:05.953Z,90.50
2019-02-12T10:49:35.751Z,89.00
2019-02-12T10:52:05.746Z,88.90
2019-02-12T10:54:35.645Z,89.70
2019-02-12T10:57:05.717Z,89.40
2019-02-12T10:59:35.773Z,89.30
2019-02-12T11:02:05.853Z,89.80
2019-02-12T11:04:35.546Z,90.00
2019-02-12T11:07:06.290Z,90.00
2019-02-12T11:09:35.911Z,89.80
2019-02-12T11:12:05.587Z,89.50
2019-02-12T11:14:35.412Z,88.20
2019-02-12T11:17:06.286Z,87.90
2019-02-12T11:19:35.817Z,86.20
2019-02-12T11:22:05.587Z,84.60
2019-02-12T11:24:35.853Z,85.10
2019-02-12T11:27:05.808Z,85.20
2019-02-12T11:29:35.368Z,83.50
2019-02-12T11:32:05.169Z,81.50
2019-02-12T11:34:35.212Z,81.20
2019-02-12T11:37:05.075Z,81.00
2019-02-12T11:39:34.999Z,82.50
2019-02-12T11:42:05.387Z,84.10
2019-02-12T11:44:34.956Z,84.90
2019-02-12T11:47:05.894Z,85.90
2019-02-12T11:49:35.426Z,87.10
2019-02-12T11:52:24.419Z,87.00
2019-02-12T11:54:54.183Z,85.20
2019-02-12T11:57:26.278Z,83.10
2019-02-12T11:59:55.988Z,82.60
2019-02-12T12:02:27.155Z,83.00
2019-02-12T12:04:56.701Z,84.70
2019-02-12T12:07:26.719Z,84.50
2019-02-12T12:09:56.247Z,83.70
2019-02-12T12:12:25.840Z,78.80
2019-02-12T12:14:55.460Z,77.50
2019-02-12T12:17:24.995Z,77.50
2019-02-12T12:19:54.606Z,77.30
2019-02-12T12:22:26.711Z,78.70
2019-02-12T12:24:56.247Z,80.20
2019-02-12T12:27:25.871Z,80.80
2019-02-12T12:29:55.451Z,82.30
2019-02-12T12:32:25.053Z,82.30
2019-02-12T12:34:54.713Z,82.10
2019-02-12T12:37:24.377Z,82.40
2019-02-12T12:39:54.155Z,82.20
2019-02-12T12:42:24.567Z,82.90
2019-02-12T12:44:54.118Z,82.60
2019-02-12T12:47:24.457Z,83.10
2019-02-12T12:49:54.197Z,82.90
2019-02-12T12:52:24.136Z,83.00
2019-02-12T12:54:59.749Z,83.30
2019-02-12T12:57:25.495Z,83.30
2019-02-12T12:59:55.054Z,83.20
2019-02-12T13:02:24.874Z,82.40
2019-02-12T13:04:54.411Z,79.80
2019-02-12T13:07:25.364Z,79.60
2019-02-12T13:09:54.966Z,78.40
2019-02-12T13:12:24.536Z,78.60
2019-02-12T13:14:54.166Z,80.10
2019-02-12T13:17:24.004Z,80.40
2019-02-12T13:19:53.779Z,79.50
2019-02-12T13:22:23.687Z,77.20
2019-02-12T13:24:53.528Z,75.70
2019-02-12T13:27:23.479Z,76.30
2019-02-12T13:29:53.507Z,76.90
2019-02-12T13:32:23.710Z,77.00
2019-02-12T13:34:53.251Z,73.70
2019-02-12T13:37:23.419Z,73.60
2019-02-12T13:39:53.404Z,74.70
2019-02-12T13:42:23.146Z,74.70
2019-02-12T13:44:53.523Z,75.20
2019-02-12T13:47:23.231Z,75.00
2019-02-12T13:49:56.107Z,78.10
2019-02-12T13:52:25.816Z,80.60
2019-02-12T13:54:55.853Z,83.20
2019-02-12T13:57:25.394Z,84.30
2019-02-12T13:59:58.115Z,85.40
2019-02-12T14:02:28.128Z,86.00
2019-02-12T14:04:57.796Z,86.90
2019-02-12T14:07:27.351Z,87.10
2019-02-12T14:09:56.888Z,87.30
2019-02-12T14:12:26.493Z,87.70
2019-02-12T14:14:56.107Z,87.90
2019-02-12T14:17:26.871Z,87.10
2019-02-12T14:19:56.399Z,86.90
2019-02-12T14:22:25.955Z,87.80
2019-02-12T14:24:56.060Z,88.30
2019-02-12T14:27:25.726Z,88.70
2019-02-12T14:29:55.281Z,88.80
2019-02-12T14:32:24.871Z,88.90
2019-02-12T14:34:54.562Z,89.00
2019-02-12T14:37:24.116Z,89.20
2019-02-12T14:39:55.287Z,89.50
2019-02-12T14:42:24.814Z,88.70
2019-02-12T14:44:55.079Z,89.50
2019-02-12T14:47:24.615Z,88.30
2019-02-12T14:49:54.660Z,88.90
2019-02-12T14:52:24.257Z,88.20
2019-02-12T14:54:54.526Z,88.30
2019-02-12T14:57:24.273Z,88.50
2019-02-12T14:59:54.534Z,89.50
2019-02-12T15:02:24.283Z,89.80
2019-02-12T15:05:00.441Z,90.30
2019-02-12T15:07:25.186Z,90.70
2019-02-12T15:09:55.186Z,91.10
2019-02-12T15:12:25.415Z,91.60
2019-02-12T15:14:55.915Z,92.00
2019-02-12T15:17:25.460Z,92.30
2019-02-12T15:19:55.274Z,92.30
2019-02-12T15:22:26.179Z,92.20
2019-02-12T15:24:55.720Z,92.40
2019-02-12T15:27:25.466Z,92.40
2019-02-12T15:29:55.552Z,92.80
2019-02-12T15:32:25.614Z,92.80
2019-02-12T15:34:55.140Z,92.80
2019-02-12T15:37:24.772Z,92.70
2019-02-12T15:39:55.611Z,92.70
2019-02-12T15:42:25.507Z,92.50
2019-02-12T15:44:55.140Z,92.40
2019-02-12T15:47:24.693Z,92.30
2019-02-12T15:49:54.846Z,92.30
2019-02-12T15:52:24.599Z,92.40
2019-02-12T15:54:54.195Z,92.50
2019-02-12T15:57:24.954Z,92.60
2019-02-12T15:59:56.114Z,92.60
2019-02-12T16:02:25.709Z,92.90
2019-02-12T16:04:55.963Z,92.70
2019-02-12T16:07:25.582Z,92.80
2019-02-12T16:09:56.922Z,92.80
2019-02-12T16:12:26.795Z,92.90
2019-02-12T16:14:59.753Z,93.20
2019-02-12T16:17:29.206Z,93.10
2019-02-12T16:19:58.782Z,93.20
2019-02-12T16:22:28.361Z,93.30
2019-02-12T16:24:58.567Z,93.40
2019-02-12T16:27:29.418Z,93.40
2019-02-12T16:30:01.074Z,93.30
2019-02-12T16:32:30.868Z,93.40
2019-02-12T16:35:00.466Z,93.60
2019-02-12T16:37:30.243Z,93.50
2019-02-12T16:40:00.671Z,93.60
2019-02-12T16:42:30.258Z,93.60
2019-02-12T16:44:59.857Z,93.80
2019-02-12T16:47:29.808Z,93.90
2019-02-12T16:49:59.696Z,93.80
2019-02-12T16:52:29.412Z,93.80
2019-02-12T16:54:58.930Z,94.00
2019-02-12T16:57:33.197Z,94.00
2019-02-12T17:00:04.600Z,93.90
2019-02-12T17:02:34.347Z,94.00
2019-02-12T17:05:06.039Z,94.00
2019-02-12T17:07:37.146Z,94.00
2019-02-12T17:10:09.259Z,94.10
2019-02-12T17:12:38.821Z,94.20
2019-02-12T17:15:13.898Z,94.30
2019-02-12T17:17:43.558Z,94.50
2019-02-12T17:20:21.264Z,94.60
2019-02-12T17:22:51.315Z,94.50
2019-02-12T17:25:20.847Z,94.50
2019-02-12T17:27:50.472Z,94.50
2019-02-12T17:30:20.130Z,94.60
2019-02-12T17:32:49.662Z,94.60
2019-02-12T17:35:19.513Z,94.60
2019-02-12T17:37:49.094Z,94.70
2019-02-12T17:40:20.163Z,94.70
2019-02-12T17:42:50.365Z,94.70
2019-02-12T17:45:19.964Z,94.90
2019-02-12T17:47:49.578Z,95.00
2019-02-12T17:50:19.135Z,95.10
2019-02-12T17:52:48.726Z,95.20
2019-02-12T17:55:18.411Z,95.10
2019-02-12T17:57:48.629Z,95.20
2019-02-12T18:00:21.387Z,95.20
2019-02-12T18:02:50.964Z,95.30
2019-02-12T18:05:20.525Z,95.40
2019-02-12T18:07:54.115Z,95.40
2019-02-12T18:10:23.726Z,95.30
2019-02-12T18:12:53.380Z,95.30
2019-02-12T18:15:23.429Z,95.30
2019-02-12T18:17:53.202Z,95.40
2019-02-12T18:20:26.596Z,95.30
2019-02-12T18:22:54.877Z,95.20
2019-02-12T18:25:24.555Z,95.20
2019-02-12T18:27:54.187Z,95.10
2019-02-12T18:30:23.714Z,95.10
2019-02-12T18:32:53.655Z,95.10
2019-02-12T18:35:23.451Z,95.20
2019-02-12T18:37:53.064Z,95.30
2019-02-12T18:40:22.739Z,95.40
2019-02-12T18:42:52.355Z,95.50
2019-02-12T18:45:23.422Z,95.60
2019-02-12T18:47:58.919Z,95.70
2019-02-12T18:50:28.447Z,95.70
2019-02-12T18:52:57.972Z,95.70
2019-02-12T18:55:27.595Z,95.80
2019-02-12T18:57:57.119Z,95.90
2019-02-12T19:00:27.435Z,96.00
2019-02-12T19:02:57.027Z,96.00
2019-02-12T19:05:26.627Z,96.00
2019-02-12T19:07:56.156Z,96.10
2019-02-12T19:10:25.781Z,96.20
2019-02-12T19:13:02.882Z,96.60
2019-02-12T19:15:32.506Z,96.10
2019-02-12T19:18:14.037Z,95.90
2019-02-12T19:20:43.593Z,96.00
2019-02-12T19:23:27.839Z,95.80
2019-02-12T19:25:57.402Z,95.80
2019-02-12T19:28:26.998Z,95.80
2019-02-12T19:30:56.539Z,95.80
2019-02-12T19:33:26.147Z,95.80
2019-02-12T19:35:55.685Z,95.70
2019-02-12T19:38:25.276Z,95.90
2019-02-12T19:40:54.852Z,96.10
2019-02-12T19:43:24.815Z,96.10
2019-02-12T19:45:54.899Z,96.10
2019-02-12T19:48:24.939Z,96.00
2019-02-12T19:50:55.042Z,96.00
2019-02-12T19:53:24.738Z,96.10
2019-02-12T19:55:54.659Z,96.20
2019-02-12T19:58:25.041Z,96.20
2019-02-12T20:00:54.635Z,96.40
2019-02-12T20:03:24.818Z,96.60
2019-02-12T20:05:54.753Z,96.80
2019-02-12T20:08:24.639Z,96.80
2019-02-12T20:10:54.384Z,96.90
2019-02-12T20:13:24.575Z,96.80
2019-02-12T20:15:54.542Z,96.80
2019-02-12T20:18:24.535Z,96.70
2019-02-12T20:20:55.291Z,96.60
2019-02-12T20:23:24.814Z,96.80
2019-02-12T20:25:54.434Z,96.80
2019-02-12T20:28:24.579Z,96.80
2019-02-12T20:30:54.174Z,96.90
2019-02-12T20:33:24.173Z,97.00
2019-02-12T20:35:53.686Z,97.20
2019-02-12T20:38:23.206Z,97.00
2019-02-12T20:40:52.759Z,96.90
2019-02-12T20:43:22.834Z,97.00
2019-02-12T20:45:52.366Z,97.00
2019-02-12T20:48:21.923Z,97.00
2019-02-12T20:50:51.463Z,97.00
2019-02-12T20:53:21.019Z,97.00
2019-02-12T20:55:50.643Z,97.00
2019-02-12T20:58:20.292Z,97.00
2019-02-12T21:00:49.811Z,96.90
2019-02-12T21:03:19.615Z,96.90
2019-02-12T21:05:49.423Z,96.90
2019-02-12T21:08:19.584Z,96.90
2019-02-12T21:10:49.355Z,96.90
2019-02-12T21:13:20.014Z,96.90
2019-02-12T21:15:49.535Z,96.80
2019-02-12T21:18:19.280Z,97.00
2019-02-12T21:20:49.327Z,96.70
2019-02-12T21:23:19.351Z,96.60
2019-02-12T21:25:49.397Z,96.60
2019-02-12T21:28:19.181Z,96.60
2019-02-12T21:30:49.353Z,96.60
2019-02-12T21:33:19.014Z,96.60
2019-02-12T21:35:48.918Z,96.80
2019-02-12T21:38:20.651Z,96.90
2019-02-12T21:40:50.207Z,96.90
2019-02-12T21:43:19.794Z,96.90
2019-02-12T21:45:49.341Z,97.00
2019-02-12T21:48:18.888Z,97.00
2019-02-12T21:50:49.795Z,97.10
2019-02-12T21:53:19.397Z,97.10
2019-02-12T21:55:49.045Z,97.10
2019-02-12T21:58:19.930Z,97.40
2019-02-12T22:00:49.458Z,97.30
2019-02-12T22:03:19.014Z,97.30
2019-02-12T22:05:49.467Z,97.20
2019-02-12T22:08:19.228Z,97.20
2019-02-12T22:10:48.797Z,97.30
2019-02-12T22:13:18.571Z,97.50
2019-02-12T22:15:48.704Z,97.50
2019-02-12T22:18:18.264Z,97.40
2019-02-12T22:20:48.102Z,97.40
2019-02-12T22:23:19.172Z,97.50
2019-02-12T22:25:49.145Z,97.60
2019-02-12T22:28:19.110Z,97.70
2019-02-12T22:30:49.110Z,97.60
2019-02-12T22:33:19.063Z,97.60
2019-02-12T22:35:48.802Z,97.50
2019-02-12T22:38:19.070Z,97.60
2019-02-12T22:40:48.900Z,97.60
2019-02-12T22:43:18.799Z,97.70
2019-02-12T22:45:48.767Z,97.70
2019-02-12T22:48:18.656Z,97.70
2019-02-12T22:50:48.531Z,97.70
2019-02-12T22:53:18.584Z,97.70
2019-02-12T22:55:48.646Z,97.60
2019-02-12T22:58:18.513Z,97.50
2019-02-12T23:00:57.786Z,97.60
2019-02-12T23:03:27.452Z,97.60
2019-02-12T23:05:57.435Z,97.50
2019-02-12T23:08:27.070Z,97.30
2019-02-12T23:10:56.659Z,97.20
2019-02-12T23:13:26.259Z,97.30
2019-02-12T23:15:55.899Z,97.40
2019-02-12T23:18:26.448Z,97.30
2019-02-12T23:20:56.098Z,97.30
2019-02-12T23:23:25.652Z,97.30
2019-02-12T23:25:55.251Z,97.30
2019-02-12T23:28:24.778Z,97.30
2019-02-12T23:30:54.946Z,97.30
2019-02-12T23:33:24.488Z,97.40
2019-02-12T23:35:54.070Z,97.70
2019-02-12T23:38:23.631Z,97.50
2019-02-12T23:40:53.243Z,97.50
2019-02-12T23:43:22.830Z,97.50
2019-02-12T23:45:52.838Z,97.20
2019-02-12T23:48:22.647Z,97.40
2019-02-12T23:50:52.487Z,97.30
2019-02-12T23:53:22.034Z,97.30
2019-02-12T23:55:51.550Z,97.40
2019-02-12T23:58:21.073Z,97.50
